Time;durP1;ratioP1;P1;durP2;ratioP2;P2;SDS_P1;SDS_P2;PMS_P1;PMS_P2;Temp;Humidity;BMP_temperature;BMP_pressure;BME280_temperature;BME280_humidity;BME280_pressure;Samples;Min_cycle;Max_cycle;Signal;HPM_P1;HPM_P2
2023/04/03 00:00:05;;;;;;;;;28.50;26.00;;;;;10.59;60.31;102077.94;2087455;28;44941;-63
2023/04/03 00:01:06;;;;;;;;;27.80;26.80;;;;;10.58;60.15;102077.06;2083787;28;44960;-63
2023/04/03 00:02:06;;;;;;;;;26.75;24.50;;;;;10.59;60.08;102081.50;2085752;28;44984;-64
2023/04/03 00:03:07;;;;;;;;;29.25;26.00;;;;;10.59;60.21;102078.84;2085056;28;44908;-63
2023/04/03 00:04:07;;;;;;;;;24.75;24.50;;;;;10.59;60.15;102072.63;2083599;28;44967;-62
2023/04/03 00:05:08;;;;;;;;;30.50;28.50;;;;;10.60;60.00;102075.28;2087814;28;44914;-64
2023/04/03 00:06:10;;;;;;;;;27.50;26.00;;;;;10.61;60.25;102078.81;2083469;28;44885;-63
2023/04/03 00:07:12;;;;;;;;;26.40;25.40;;;;;10.61;60.30;102076.19;2084235;28;44897;-63
2023/04/03 00:08:13;;;;;;;;;28.20;25.40;;;;;10.62;60.24;102069.97;2078605;28;45316;-64
2023/04/03 00:09:13;;;;;;;;;30.75;27.50;;;;;10.63;60.09;102069.09;2076550;28;44865;-63
2023/04/03 00:10:15;;;;;;;;;25.75;24.75;;;;;10.63;59.86;102070.88;2078007;28;45038;-64
2023/04/03 00:11:16;;;;;;;;;33.60;29.00;;;;;10.62;60.26;102075.28;2069229;28;45082;-63
2023/04/03 00:12:16;;;;;;;;;29.40;27.40;;;;;10.61;59.93;102077.06;2076571;28;44867;-63
2023/04/03 00:13:17;;;;;;;;;28.50;26.50;;;;;10.61;60.28;102071.75;2086803;28;45311;-62
2023/04/03 00:14:17;;;;;;;;;26.50;26.50;;;;;10.62;60.15;102075.28;2083694;28;44799;-63
2023/04/03 00:15:18;;;;;;;;;32.75;31.50;;;;;10.63;60.24;102074.41;2087662;28;45214;-62
2023/04/03 00:16:18;;;;;;;;;26.00;24.50;;;;;10.63;59.63;102070.88;2087424;28;44821;-63
2023/04/03 00:17:18;;;;;;;;;30.75;29.75;;;;;10.60;60.12;102075.28;2078898;28;45011;-63
2023/04/03 00:18:19;;;;;;;;;26.25;25.00;;;;;10.60;60.10;102072.63;2078676;28;44899;-64
2023/04/03 00:19:19;;;;;;;;;29.50;27.75;;;;;10.59;60.19;102072.63;2086212;28;44996;-63
2023/04/03 00:20:20;;;;;;;;;25.75;24.00;;;;;10.60;60.00;102079.72;2080613;28;45022;-63
2023/04/03 00:21:21;;;;;;;;;22.00;19.60;;;;;10.61;60.01;102078.81;2079129;28;45084;-64
2023/04/03 00:22:21;;;;;;;;;23.00;21.50;;;;;10.60;60.20;102079.72;2083613;28;44849;-62
2023/04/03 00:23:23;;;;;;;;;28.00;28.00;;;;;10.61;59.98;102081.47;2078283;28;44962;-63
2023/04/03 00:24:24;;;;;;;;;24.00;23.00;;;;;10.61;60.02;102073.53;2074965;28;44949;-62
2023/04/03 00:25:24;;;;;;;;;22.50;21.75;;;;;10.61;59.87;102077.06;2108006;27;44832;-63
2023/04/03 00:26:25;;;;;;;;;30.00;23.25;;;;;10.63;60.14;102084.13;2108254;27;45292;-63
2023/04/03 00:27:25;;;;;;;;;20.50;20.00;;;;;10.63;59.88;102079.72;2111730;27;44854;-62
2023/04/03 00:28:26;;;;;;;;;23.00;23.00;;;;;10.63;59.73;102076.16;2103511;28;45063;-63
2023/04/03 00:29:26;;;;;;;;;30.60;26.60;;;;;10.61;60.08;102079.72;2104892;27;44906;-63
2023/04/03 00:30:27;;;;;;;;;21.50;20.25;;;;;10.61;59.93;102076.19;2112481;27;44791;-63
2023/04/03 00:31:27;;;;;;;;;22.25;21.00;;;;;10.60;59.81;102083.25;2113269;27;45129;-62
2023/04/03 00:32:28;;;;;;;;;26.00;25.50;;;;;10.59;59.76;102078.84;2113808;27;44951;-61
2023/04/03 00:33:28;;;;;;;;;28.50;27.75;;;;;10.61;59.66;102084.13;2112422;27;44901;-63
2023/04/03 00:34:28;;;;;;;;;23.50;23.50;;;;;10.59;59.74;102084.13;2113339;27;45146;-63
2023/04/03 00:35:29;;;;;;;;;28.25;24.75;;;;;10.60;60.08;102077.06;2112932;27;44868;-65
2023/04/03 00:36:30;;;;;;;;;23.00;23.00;;;;;10.61;59.65;102079.72;2112494;27;44996;-62
2023/04/03 00:37:30;;;;;;;;;25.75;23.00;;;;;10.61;59.86;102076.19;2113390;27;44872;-62
2023/04/03 00:38:31;;;;;;;;;27.50;27.50;;;;;10.60;59.86;102075.28;2104064;28;45338;-62
2023/04/03 00:39:31;;;;;;;;;25.25;24.50;;;;;10.61;59.98;102079.72;2104039;27;44965;-62
2023/04/03 00:40:37;;;;;;;;;30.25;28.50;;;;;10.62;59.84;102077.94;2113566;27;45438;-62
2023/04/03 00:41:37;;;;;;;;;28.60;24.80;;;;;10.63;59.93;102078.81;2112630;27;44841;-64
2023/04/03 00:42:40;;;;;;;;;24.00;23.25;;;;;10.64;59.87;102083.25;2113777;27;45143;-63
2023/04/03 00:43:40;;;;;;;;;24.80;23.60;;;;;10.62;59.48;102080.59;2112713;27;44801;-63
2023/04/03 00:44:41;;;;;;;;;26.00;26.00;;;;;10.61;59.63;102079.72;2112744;27;44946;-62
2023/04/03 00:45:44;;;;;;;;;24.50;22.75;;;;;10.64;59.65;102085.91;2113388;27;44963;-63
2023/04/03 00:46:45;;;;;;;;;26.80;24.80;;;;;10.63;59.70;102079.72;2112164;27;44964;-63
2023/04/03 00:47:45;;;;;;;;;27.75;25.75;;;;;10.64;59.70;102080.59;2103251;28;44965;-63
2023/04/03 00:48:48;;;;;;;;;29.00;24.25;;;;;10.63;59.72;102079.72;2104696;27;44945;-62
2023/04/03 00:49:50;;;;;;;;;24.60;24.60;;;;;10.62;59.75;102083.25;2112509;27;45006;-63
2023/04/03 00:50:50;;;;;;;;;30.80;27.20;;;;;10.61;59.54;102084.13;2110286;27;45164;-63
2023/04/03 00:51:51;;;;;;;;;24.00;23.00;;;;;10.62;59.52;102088.56;2103216;28;44828;-64
2023/04/03 00:52:52;;;;;;;;;30.50;27.75;;;;;10.61;59.79;102079.72;2109534;27;45452;-63
2023/04/03 00:54:00;;;;;;;;;32.75;27.25;;;;;10.61;59.52;102085.03;2111600;27;44861;-63
2023/04/03 00:55:07;;;;;;;;;24.60;21.40;;;;;10.63;59.54;102086.78;2113202;27;44903;-63
2023/04/03 00:56:12;;;;;;;;;24.80;23.80;;;;;10.60;59.64;102080.59;2112726;27;45076;-62
2023/04/03 00:57:13;;;;;;;;;26.60;24.00;;;;;10.61;59.60;102087.69;2108125;27;45009;-63
2023/04/03 00:58:17;;;;;;;;;26.80;23.20;;;;;10.60;59.59;102080.59;2104714;27;44905;-63
2023/04/03 00:59:26;;;;;;;;;27.80;26.40;;;;;10.61;59.81;102077.06;2105841;27;44947;-63
2023/04/03 01:00:26;;;;;;;;;23.40;22.40;;;;;10.61;59.64;102078.81;2100914;27;45288;-63
2023/04/03 01:01:28;;;;;;;;;26.00;24.75;;;;;10.63;59.73;102079.72;2110118;27;44948;-62
2023/04/03 01:02:29;;;;;;;;;25.20;23.80;;;;;10.62;59.66;102075.28;2100695;28;44853;-62
2023/04/03 01:03:31;;;;;;;;;27.50;26.50;;;;;10.62;59.43;102072.63;2104688;28;44821;-63
2023/04/03 01:04:37;;;;;;;;;26.80;25.80;;;;;10.61;59.58;102071.75;2110186;27;45055;-64
2023/04/03 01:05:38;;;;;;;;;21.20;21.20;;;;;10.61;59.55;102070.88;2092116;28;44880;-63
2023/04/03 01:06:38;;;;;;;;;31.25;28.00;;;;;10.61;59.74;102071.75;2095494;27;44854;-63
2023/04/03 01:07:39;;;;;;;;;23.25;22.50;;;;;10.61;59.46;102070.88;2109962;27;44814;-63
2023/04/03 01:08:40;;;;;;;;;26.80;25.80;;;;;10.61;59.87;102069.09;2112184;27;44824;-63
2023/04/03 01:09:41;;;;;;;;;30.00;29.25;;;;;10.61;59.73;102070.88;2102501;28;45062;-63
2023/04/03 01:10:41;;;;;;;;;31.40;29.40;;;;;10.60;59.65;102071.75;2101055;27;44884;-64
2023/04/03 01:11:42;;;;;;;;;26.25;26.25;;;;;10.61;59.69;102069.09;2113711;27;44848;-64
2023/04/03 01:12:45;;;;;;;;;29.50;26.75;;;;;10.60;59.46;102066.44;2110292;27;44889;-64
2023/04/03 01:13:45;;;;;;;;;27.00;25.80;;;;;10.59;59.67;102070.00;2109858;27;44940;-63
2023/04/03 01:14:55;;;;;;;;;29.00;26.50;;;;;10.59;59.78;102072.63;2113222;27;44784;-62
2023/04/03 01:15:57;;;;;;;;;29.20;27.40;;;;;10.58;59.74;102065.56;2110949;27;44906;-62
2023/04/03 01:16:57;;;;;;;;;25.60;24.60;;;;;10.59;59.46;102064.69;2110401;27;44865;-63
2023/04/03 01:17:58;;;;;;;;;30.25;29.00;;;;;10.58;59.45;102062.91;2113246;27;44870;-63
2023/04/03 01:19:00;;;;;;;;;27.80;26.60;;;;;10.58;59.52;102069.09;2110383;27;44876;-64
2023/04/03 01:20:31;;;;;;;;;27.40;26.40;;;;;10.58;59.64;102063.78;2102676;28;44833;-63
2023/04/03 01:22:17;;;;;;;;;25.20;23.60;;;;;10.58;59.86;102068.22;2074949;28;44929;-63
2023/04/03 01:23:42;;;;;;;;;24.60;21.20;;;;;10.57;59.57;102066.44;2074942;28;44977;-61
2023/04/03 01:24:43;;;;;;;;;27.20;24.60;;;;;10.56;59.88;102070.88;2070060;28;45407;-61
2023/04/03 01:25:47;;;;;;;;;26.50;25.75;;;;;10.56;59.78;102067.34;2054414;28;45157;-62
2023/04/03 01:26:49;;;;;;;;;24.40;24.00;;;;;10.53;59.96;102065.53;2056401;28;44918;-62
2023/04/03 01:27:49;;;;;;;;;24.40;23.80;;;;;10.53;59.82;102068.19;2066273;28;48053;-63
2023/04/03 01:28:50;;;;;;;;;32.00;28.00;;;;;10.52;60.11;102062.88;2070282;28;45186;-62
2023/04/03 01:29:50;;;;;;;;;25.25;24.75;;;;;10.51;59.88;102066.44;2070590;28;44866;-63
2023/04/03 01:31:22;;;;;;;;;31.50;28.25;;;;;10.51;59.99;102063.78;2070444;28;45688;-63
2023/04/03 01:32:22;;;;;;;;;26.00;24.00;;;;;10.51;60.11;102066.44;2053933;28;44930;-62
2023/04/03 01:33:23;;;;;;;;;28.25;27.00;;;;;10.51;60.06;102062.00;2053921;28;45022;-63
2023/04/03 01:34:24;;;;;;;;;28.75;27.25;;;;;10.50;59.73;102059.34;2054323;28;45233;-64
2023/04/03 01:35:25;;;;;;;;;27.20;25.80;;;;;10.48;59.99;102059.38;2054270;28;44979;-61
2023/04/03 01:36:28;;;;;;;;;27.75;27.25;;;;;10.47;60.14;102056.72;2045997;28;45101;-63
2023/04/03 01:37:28;;;;;;;;;22.00;22.00;;;;;10.46;60.26;102063.78;2046106;28;44908;-62
2023/04/03 01:38:30;;;;;;;;;28.50;25.25;;;;;10.45;60.20;102061.13;2053871;28;45679;-62
2023/04/03 01:39:30;;;;;;;;;29.20;24.60;;;;;10.44;60.22;102060.25;2046341;28;44888;-63
2023/04/03 01:40:30;;;;;;;;;31.25;31.25;;;;;10.42;60.18;102059.38;2048800;28;44892;-63
2023/04/03 01:41:31;;;;;;;;;25.75;25.25;;;;;10.42;60.55;102054.06;2054269;28;45346;-62
2023/04/03 01:42:31;;;;;;;;;29.00;27.00;;;;;10.42;60.40;102056.72;2053753;28;45154;-63
2023/04/03 01:43:31;;;;;;;;;30.00;30.00;;;;;10.43;60.51;102057.59;2053773;28;45037;-63
2023/04/03 01:44:32;;;;;;;;;25.25;25.00;;;;;10.43;60.36;102057.59;2054541;28;44857;-64
2023/04/03 01:45:32;;;;;;;;;28.50;27.00;;;;;10.44;60.31;102062.03;2053666;28;44980;-63
2023/04/03 01:46:33;;;;;;;;;30.25;27.50;;;;;10.43;60.45;102062.91;2053909;28;45202;-63
2023/04/03 01:47:34;;;;;;;;;32.80;30.40;;;;;10.42;60.61;102062.03;2046838;28;44964;-63
2023/04/03 01:48:35;;;;;;;;;29.50;26.75;;;;;10.41;60.50;102060.22;2045774;28;44997;-62
2023/04/03 01:49:35;;;;;;;;;23.50;23.25;;;;;10.40;60.38;102063.78;2045892;28;44969;-63
2023/04/03 01:50:35;;;;;;;;;26.75;23.00;;;;;10.40;60.41;102061.13;2045795;28;45405;-63
2023/04/03 01:51:36;;;;;;;;;28.50;26.00;;;;;10.38;60.54;102060.25;2046138;28;45579;-64
2023/04/03 01:52:36;;;;;;;;;27.00;27.00;;;;;10.37;60.44;102053.16;2045952;28;44900;-63
2023/04/03 01:53:37;;;;;;;;;27.75;24.75;;;;;10.38;60.33;102062.00;2046027;28;44983;-63
2023/04/03 01:54:37;;;;;;;;;29.75;26.50;;;;;10.37;60.71;102055.81;2057608;28;44899;-64
2023/04/03 01:55:38;;;;;;;;;31.25;31.00;;;;;10.38;60.50;102056.69;2078042;28;45371;-62
2023/04/03 01:56:38;;;;;;;;;28.50;26.00;;;;;10.38;60.41;102056.69;2078602;28;44790;-62
2023/04/03 01:57:39;;;;;;;;;25.25;24.00;;;;;10.37;60.52;102060.25;2078217;28;44860;-62
2023/04/03 01:58:39;;;;;;;;;25.75;24.50;;;;;10.38;60.50;102059.34;2078105;28;45014;-63
2023/04/03 01:59:40;;;;;;;;;21.50;21.50;;;;;10.38;60.37;102062.00;2078819;28;44953;-63
2023/04/03 02:00:40;;;;;;;;;29.25;24.00;;;;;10.39;60.24;102061.13;2078670;28;44896;-62
2023/04/03 02:01:41;;;;;;;;;25.00;21.75;;;;;10.37;60.26;102062.91;2078505;28;45219;-62
2023/04/03 02:02:41;;;;;;;;;30.00;25.75;;;;;10.35;60.45;102052.28;2078199;28;44930;-63
2023/04/03 02:03:41;;;;;;;;;23.50;22.00;;;;;10.36;60.37;102054.06;2078434;28;44926;-63
2023/04/03 02:04:42;;;;;;;;;22.50;17.25;;;;;10.36;60.30;102051.41;2078294;28;44818;-63
2023/04/03 02:05:42;;;;;;;;;27.75;25.00;;;;;10.36;60.42;102056.69;2078700;28;44971;-63
2023/04/03 02:06:42;;;;;;;;;26.75;25.00;;;;;10.36;60.37;102056.69;2078519;28;44847;-63
2023/04/03 02:07:43;;;;;;;;;28.50;26.75;;;;;10.35;60.13;102054.06;2078721;28;44929;-62
2023/04/03 02:08:43;;;;;;;;;21.75;19.50;;;;;10.35;60.11;102057.59;2078073;28;44915;-63
2023/04/03 02:09:43;;;;;;;;;23.25;22.75;;;;;10.35;60.00;102051.41;2095403;28;44977;-62
2023/04/03 02:10:46;;;;;;;;;26.50;23.25;;;;;10.35;59.93;102059.34;2104175;28;45450;-62
2023/04/03 02:11:47;;;;;;;;;21.80;20.40;;;;;10.35;59.83;102056.72;2097283;28;44853;-62
2023/04/03 02:12:47;;;;;;;;;22.50;20.75;;;;;10.34;59.96;102058.47;2096512;28;45514;-62
2023/04/03 02:13:48;;;;;;;;;26.50;23.25;;;;;10.35;59.96;102059.34;2100276;28;44890;-63
2023/04/03 02:14:51;;;;;;;;;27.25;24.00;;;;;10.35;60.12;102056.72;2104217;28;44913;-63
2023/04/03 02:15:51;;;;;;;;;20.00;18.80;;;;;10.34;60.08;102053.16;2112261;27;44828;-63
2023/04/03 02:16:52;;;;;;;;;21.75;19.75;;;;;10.33;59.81;102051.41;2107466;27;44821;-62
2023/04/03 02:17:52;;;;;;;;;23.00;21.75;;;;;10.33;60.06;102048.75;2109103;27;44896;-63
2023/04/03 02:18:52;;;;;;;;;24.00;23.50;;;;;10.34;59.87;102060.25;2110641;27;45155;-63
2023/04/03 02:19:53;;;;;;;;;24.75;22.00;;;;;10.34;60.01;102055.81;2103228;27;45031;-64
2023/04/03 02:20:53;;;;;;;;;21.25;21.25;;;;;10.35;60.02;102060.25;2101576;27;45295;-62
2023/04/03 02:21:53;;;;;;;;;22.25;22.00;;;;;10.34;59.78;102053.16;2103433;27;45175;-62
2023/04/03 02:22:55;;;;;;;;;23.00;22.75;;;;;10.34;60.01;102053.16;2095120;28;45418;-62
2023/04/03 02:23:56;;;;;;;;;21.60;21.20;;;;;10.34;59.86;102050.50;2091033;28;44974;-63
2023/04/03 02:24:56;;;;;;;;;22.25;22.25;;;;;10.35;59.73;102056.72;2104769;27;44883;-62
2023/04/03 02:26:12;;;;;;;;;24.50;22.00;;;;;10.35;59.81;102054.06;2102919;28;44811;-62
2023/04/03 02:27:12;;;;;;;;;25.40;24.40;;;;;10.34;60.01;102055.81;2107204;27;44893;-63
2023/04/03 02:28:13;;;;;;;;;23.00;23.00;;;;;10.34;59.66;102058.47;2106781;27;44806;-62
2023/04/03 02:29:13;;;;;;;;;24.75;23.25;;;;;10.35;59.82;102054.06;2112849;27;44779;-63
2023/04/03 02:30:14;;;;;;;;;28.00;27.25;;;;;10.34;59.78;102052.28;2103820;28;44936;-62
2023/04/03 02:31:15;;;;;;;;;27.00;24.75;;;;;10.32;59.60;102055.81;2103347;28;44928;-62
2023/04/03 02:32:15;;;;;;;;;23.50;20.50;;;;;10.32;59.62;102058.47;2106457;27;44815;-62
2023/04/03 02:33:16;;;;;;;;;24.75;21.00;;;;;10.31;59.46;102053.19;2107006;27;44929;-63
2023/04/03 02:34:16;;;;;;;;;25.75;24.75;;;;;10.31;59.55;102055.81;2095491;28;44980;-62
2023/04/03 02:35:17;;;;;;;;;26.00;23.00;;;;;10.31;59.78;102056.72;2103049;28;44896;-62
2023/04/03 02:36:17;;;;;;;;;23.25;23.25;;;;;10.30;59.59;102057.59;2112686;27;44876;-61
2023/04/03 02:37:18;;;;;;;;;20.00;19.00;;;;;10.31;59.60;102055.81;2096449;28;44929;-61
2023/04/03 02:38:18;;;;;;;;;23.00;22.00;;;;;10.30;59.84;102051.41;2099932;28;45001;-62
2023/04/03 02:39:19;;;;;;;;;26.00;21.50;;;;;10.29;59.90;102053.19;2106506;27;45286;-61
2023/04/03 02:40:19;;;;;;;;;19.50;16.75;;;;;10.29;59.76;102055.84;2098790;28;45025;-62
2023/04/03 02:41:20;;;;;;;;;27.50;24.25;;;;;10.30;59.77;102049.63;2100034;28;44991;-62
2023/04/03 02:42:21;;;;;;;;;21.00;20.00;;;;;10.31;59.69;102061.13;2105781;28;44837;-62
2023/04/03 02:43:21;;;;;;;;;18.75;17.50;;;;;10.30;59.75;102052.28;2108893;27;44930;-63
2023/04/03 02:44:23;;;;;;;;;26.50;24.00;;;;;10.29;59.74;102055.84;2108461;27;44832;-63
2023/04/03 02:45:23;;;;;;;;;20.40;19.80;;;;;10.29;59.97;102055.84;2105613;27;44898;-62
2023/04/03 02:46:24;;;;;;;;;21.50;20.50;;;;;10.30;59.82;102054.94;2098972;28;44996;-62
2023/04/03 02:47:24;;;;;;;;;21.50;20.25;;;;;10.30;59.87;102052.28;2096588;28;44958;-63
2023/04/03 02:48:25;;;;;;;;;27.00;24.75;;;;;10.30;59.61;102052.28;2097130;28;44813;-62
2023/04/03 02:49:25;;;;;;;;;21.20;19.60;;;;;10.30;59.65;102056.72;2100456;28;45077;-61
2023/04/03 02:50:26;;;;;;;;;24.00;23.00;;;;;10.30;59.52;102049.63;2104938;28;44956;-62
2023/04/03 02:51:26;;;;;;;;;20.00;20.00;;;;;10.30;59.47;102057.59;2100335;28;45007;-63
2023/04/03 02:52:26;;;;;;;;;22.25;19.00;;;;;10.31;59.60;102047.88;2098504;28;45273;-62
2023/04/03 02:53:27;;;;;;;;;19.50;19.50;;;;;10.30;59.72;102054.94;2104979;28;44844;-63
2023/04/03 02:54:30;;;;;;;;;23.25;21.50;;;;;10.30;59.44;102057.59;2102576;27;44805;-62
2023/04/03 02:55:30;;;;;;;;;20.60;19.60;;;;;10.30;59.50;102054.94;2097386;28;45014;-62
2023/04/03 02:56:30;;;;;;;;;22.25;16.75;;;;;10.30;59.59;102049.63;2098391;28;44840;-62
2023/04/03 02:57:31;;;;;;;;;21.50;20.50;;;;;10.30;59.63;102048.75;2097745;28;45048;-62
2023/04/03 02:58:31;;;;;;;;;20.50;20.00;;;;;10.29;59.58;102049.59;2097003;28;45106;-62
2023/04/03 02:59:31;;;;;;;;;20.75;20.75;;;;;10.29;59.25;102055.84;2100349;28;44893;-64
2023/04/03 03:00:32;;;;;;;;;22.00;20.75;;;;;10.28;59.55;102053.16;2104918;28;44935;-61
2023/04/03 03:01:33;;;;;;;;;21.00;20.50;;;;;10.27;59.36;102046.06;2103021;28;44871;-62
2023/04/03 03:02:33;;;;;;;;;22.25;20.00;;;;;10.26;59.17;102053.16;2102012;27;44937;-61
2023/04/03 03:03:33;;;;;;;;;19.25;17.75;;;;;10.25;59.40;102046.06;2105502;28;44810;-61
2023/04/03 03:04:34;;;;;;;;;20.75;19.00;;;;;10.25;59.38;102046.06;2103467;27;45141;-61
2023/04/03 03:05:35;;;;;;;;;21.25;20.25;;;;;10.25;59.64;102048.72;2103922;28;44802;-62
2023/04/03 03:06:36;;;;;;;;;20.20;20.20;;;;;10.26;59.21;102049.63;2103995;28;44892;-62
2023/04/03 03:07:36;;;;;;;;;17.25;17.25;;;;;10.26;59.33;102046.97;2093978;28;45088;-61
2023/04/03 03:08:37;;;;;;;;;17.75;17.75;;;;;10.26;59.39;102049.63;2104673;28;45210;-61
2023/04/03 03:09:37;;;;;;;;;21.80;18.60;;;;;10.27;59.17;102054.03;2096452;28;45017;-62
2023/04/03 03:10:38;;;;;;;;;18.50;18.00;;;;;10.27;59.48;102051.38;2097858;28;45029;-63
2023/04/03 03:11:38;;;;;;;;;20.25;17.50;;;;;10.26;59.55;102053.16;2103728;28;44892;-62
2023/04/03 03:12:40;;;;;;;;;21.75;20.25;;;;;10.26;59.15;102050.50;2105225;27;44976;-63
2023/04/03 03:13:40;;;;;;;;;15.60;15.60;;;;;10.26;59.31;102052.25;2102834;27;44955;-63
2023/04/03 03:14:42;;;;;;;;;20.25;20.25;;;;;10.26;59.17;102053.16;2097094;28;44859;-62
2023/04/03 03:15:42;;;;;;;;;18.60;18.40;;;;;10.25;59.25;102047.84;2099713;28;45028;-63
2023/04/03 03:16:43;;;;;;;;;18.00;17.50;;;;;10.25;59.31;102051.38;2104297;28;44805;-61
2023/04/03 03:17:43;;;;;;;;;20.75;19.75;;;;;10.23;59.33;102053.16;2104570;28;44956;-62
2023/04/03 03:18:44;;;;;;;;;18.25;16.50;;;;;10.25;59.08;102059.34;2105026;27;44607;-61
2023/04/03 03:19:45;;;;;;;;;21.50;19.75;;;;;10.25;59.25;102055.81;2098994;28;44765;-62
2023/04/03 03:20:46;;;;;;;;;21.40;19.00;;;;;10.23;59.20;102047.84;2093103;28;44830;-61
2023/04/03 03:21:46;;;;;;;;;22.75;21.25;;;;;10.23;58.98;102050.50;2090141;28;44944;-61
2023/04/03 03:22:46;;;;;;;;;18.00;18.00;;;;;10.23;59.13;102053.16;2105377;28;45030;-61
2023/04/03 03:23:47;;;;;;;;;21.25;20.25;;;;;10.22;59.18;102043.44;2099712;28;44944;-63
2023/04/03 03:24:47;;;;;;;;;21.25;20.00;;;;;10.24;58.86;102049.63;2096306;28;44881;-62
2023/04/03 03:25:48;;;;;;;;;14.25;11.00;;;;;10.23;59.29;102047.84;2097388;28;44950;-63
2023/04/03 03:26:48;;;;;;;;;18.00;17.25;;;;;10.24;59.06;102046.09;2097071;28;45572;-61
2023/04/03 03:27:48;;;;;;;;;17.25;14.75;;;;;10.25;59.03;102051.38;2096959;28;44785;-63
2023/04/03 03:28:49;;;;;;;;;18.75;17.00;;;;;10.26;58.92;102047.84;2096650;28;44964;-63
2023/04/03 03:29:49;;;;;;;;;21.75;20.25;;;;;10.27;58.87;102040.75;2096159;28;44987;-61
2023/04/03 03:30:50;;;;;;;;;18.75;18.75;;;;;10.27;58.85;102046.97;2096565;28;45130;-63
2023/04/03 03:31:50;;;;;;;;;17.50;17.50;;;;;10.27;58.55;102048.72;2097075;28;44985;-62
2023/04/03 03:32:50;;;;;;;;;18.00;18.00;;;;;10.26;58.80;102044.31;2103266;28;45285;-64
2023/04/03 03:33:51;;;;;;;;;18.00;18.00;;;;;10.25;58.61;102047.84;2098992;28;44784;-64
2023/04/03 03:34:51;;;;;;;;;18.00;18.00;;;;;10.22;58.54;102048.72;2104458;28;44881;-63
2023/04/03 03:35:53;;;;;;;;;16.00;16.00;;;;;10.21;58.64;102052.28;2100395;27;45062;-65
2023/04/03 03:36:53;;;;;;;;;17.60;16.80;;;;;10.21;58.61;102046.06;2100558;28;44834;-63
2023/04/03 03:37:54;;;;;;;;;14.50;14.50;;;;;10.21;58.70;102049.63;2102438;28;44949;-61
2023/04/03 03:38:54;;;;;;;;;17.50;17.25;;;;;10.22;58.69;102050.50;2105035;28;44911;-62
2023/04/03 03:39:55;;;;;;;;;18.00;15.75;;;;;10.23;58.88;102046.97;2102770;27;45373;-62
2023/04/03 03:40:55;;;;;;;;;19.25;17.75;;;;;10.22;58.54;102051.38;2099727;28;45135;-62
2023/04/03 03:41:55;;;;;;;;;19.75;19.75;;;;;10.22;58.70;102054.03;2104376;28;44873;-62
2023/04/03 03:42:56;;;;;;;;;19.50;16.25;;;;;10.21;58.56;102049.63;2103986;28;45017;-60
2023/04/03 03:43:56;;;;;;;;;16.75;15.75;;;;;10.21;58.69;102046.06;2098832;28;44950;-63
2023/04/03 03:44:57;;;;;;;;;15.00;15.00;;;;;10.22;58.41;102048.72;2100317;28;44930;-62
2023/04/03 03:45:57;;;;;;;;;18.00;18.00;;;;;10.22;58.07;102050.50;2100537;28;44939;-61
2023/04/03 03:46:58;;;;;;;;;19.50;18.00;;;;;10.23;58.05;102047.84;2098606;27;45134;-62
2023/04/03 03:47:58;;;;;;;;;18.00;18.00;;;;;10.22;58.20;102051.38;2102175;27;44900;-63
2023/04/03 03:48:59;;;;;;;;;19.00;16.75;;;;;10.22;58.26;102046.09;2099881;28;44941;-61
2023/04/03 03:49:59;;;;;;;;;17.25;17.25;;;;;10.22;58.35;102048.72;2099523;28;44920;-62
2023/04/03 03:51:00;;;;;;;;;17.75;15.75;;;;;10.23;58.22;102046.97;2102358;28;44909;-63
2023/04/03 03:52:00;;;;;;;;;15.00;15.00;;;;;10.23;58.21;102047.84;2097683;28;44892;-63
2023/04/03 03:53:01;;;;;;;;;20.25;17.75;;;;;10.25;58.23;102045.19;2101482;28;44907;-62
2023/04/03 03:54:01;;;;;;;;;25.25;22.75;;;;;10.23;58.09;102047.84;2097749;28;45041;-62
2023/04/03 03:55:02;;;;;;;;;19.50;18.25;;;;;10.24;58.07;102044.31;2097279;28;44820;-62
2023/04/03 03:56:02;;;;;;;;;18.75;18.75;;;;;10.24;57.82;102039.00;2101594;28;45037;-61
2023/04/03 03:57:03;;;;;;;;;23.00;20.50;;;;;10.23;57.83;102046.97;2088155;28;44885;-64
2023/04/03 03:58:03;;;;;;;;;20.00;16.25;;;;;10.22;57.74;102046.09;2089276;28;44870;-62
2023/04/03 03:59:03;;;;;;;;;17.50;16.75;;;;;10.19;58.05;102040.75;2100453;28;45390;-63
2023/04/03 04:00:04;;;;;;;;;18.50;17.75;;;;;10.20;57.97;102052.25;2096102;28;44927;-62
2023/04/03 04:01:06;;;;;;;;;17.20;16.20;;;;;10.18;57.70;102044.28;2100626;28;44920;-62
2023/04/03 04:02:07;;;;;;;;;17.40;15.60;;;;;10.19;57.69;102047.81;2096684;28;45010;-62
2023/04/03 04:03:07;;;;;;;;;17.50;17.50;;;;;10.17;57.62;102045.16;2096505;28;44928;-62
2023/04/03 04:04:08;;;;;;;;;13.50;9.25;;;;;10.16;57.92;102051.31;2100714;28;45499;-63
2023/04/03 04:05:08;;;;;;;;;16.00;14.75;;;;;10.15;57.36;102052.22;2090040;28;44889;-63
2023/04/03 04:06:08;;;;;;;;;17.50;17.00;;;;;10.17;57.67;102052.25;2098286;28;45001;-63
2023/04/03 04:07:09;;;;;;;;;17.25;17.25;;;;;10.18;57.56;102051.38;2101634;28;44963;-60
2023/04/03 04:08:09;;;;;;;;;14.50;14.50;;;;;10.17;57.58;102050.47;2101291;28;44891;-62
2023/04/03 04:09:10;;;;;;;;;19.25;19.25;;;;;10.17;57.60;102052.25;2105049;28;44942;-64
2023/04/03 04:10:10;;;;;;;;;24.25;21.00;;;;;10.18;57.59;102048.72;2105166;27;45109;-61
2023/04/03 04:11:11;;;;;;;;;16.75;16.00;;;;;10.19;57.43;102051.34;2102618;28;44833;-62
2023/04/03 04:12:11;;;;;;;;;18.25;16.75;;;;;10.20;57.29;102049.59;2096836;28;45468;-62
2023/04/03 04:13:11;;;;;;;;;19.00;18.00;;;;;10.19;57.18;102046.06;2098534;28;45008;-61
2023/04/03 04:14:13;;;;;;;;;16.50;16.50;;;;;10.18;56.98;102049.59;2097172;28;44943;-62
2023/04/03 04:15:13;;;;;;;;;19.80;18.60;;;;;10.18;57.12;102054.00;2097771;28;45040;-63
2023/04/03 04:16:13;;;;;;;;;17.75;17.50;;;;;10.18;57.32;102048.72;2096402;28;44896;-61
2023/04/03 04:17:14;;;;;;;;;20.00;19.75;;;;;10.17;57.17;102045.16;2098133;28;44924;-61
2023/04/03 04:18:14;;;;;;;;;19.00;17.25;;;;;10.16;57.21;102043.38;2097111;28;44824;-62
2023/04/03 04:19:15;;;;;;;;;16.50;16.25;;;;;10.17;56.94;102054.91;2096799;28;44852;-62
2023/04/03 04:20:15;;;;;;;;;21.75;20.50;;;;;10.17;56.94;102044.28;2100701;28;44820;-62
2023/04/03 04:21:15;;;;;;;;;16.25;16.00;;;;;10.18;56.99;102048.72;2087916;28;44770;-62
2023/04/03 04:22:16;;;;;;;;;18.50;18.50;;;;;10.16;56.97;102039.84;2100174;28;45030;-62
2023/04/03 04:23:17;;;;;;;;;16.75;16.75;;;;;10.16;56.82;102045.13;2099044;28;44852;-61
2023/04/03 04:24:18;;;;;;;;;17.60;17.40;;;;;10.15;56.66;102040.72;2097456;28;44910;-61
2023/04/03 04:25:18;;;;;;;;;16.50;14.50;;;;;10.14;56.66;102042.50;2097611;28;44860;-61
2023/04/03 04:26:18;;;;;;;;;19.25;18.00;;;;;10.15;56.36;102041.59;2096623;28;44853;-63
2023/04/03 04:27:19;;;;;;;;;17.50;16.50;;;;;10.15;56.45;102043.38;2099635;28;44832;-61
2023/04/03 04:28:19;;;;;;;;;19.75;18.75;;;;;10.13;56.51;102042.50;2100483;28;44806;-62
2023/04/03 04:29:19;;;;;;;;;18.00;18.00;;;;;10.14;56.40;102044.25;2096338;28;44918;-63
2023/04/03 04:30:20;;;;;;;;;18.50;17.25;;;;;10.13;56.27;102043.38;2099887;28;44826;-61
2023/04/03 04:31:20;;;;;;;;;15.00;15.00;;;;;10.12;56.44;102046.91;2098266;28;44837;-61
2023/04/03 04:32:20;;;;;;;;;18.00;16.75;;;;;10.12;56.05;102051.34;2097967;27;45172;-63
2023/04/03 04:33:21;;;;;;;;;20.25;17.00;;;;;10.10;55.88;102043.38;2101601;28;44904;-65
2023/04/03 04:34:21;;;;;;;;;19.75;18.25;;;;;10.10;56.25;102048.69;2097998;28;44858;-62
2023/04/03 04:35:21;;;;;;;;;19.75;17.75;;;;;10.11;56.12;102047.78;2100618;28;44825;-62
2023/04/03 04:36:22;;;;;;;;;19.00;18.00;;;;;10.11;55.91;102053.09;2101091;28;45227;-63
2023/04/03 04:37:22;;;;;;;;;17.00;17.00;;;;;10.11;56.05;102039.84;2096477;28;44846;-63
2023/04/03 04:38:22;;;;;;;;;18.00;17.25;;;;;10.11;56.12;102052.22;2100709;28;44849;-62